sensor_id;sensor_type;location;lat;lon;timestamp;P1;durP1;ratioP1;P2;durP2;ratioP2
64950;SDS011;51482;47.014;7.652;2023-03-04T00:01:11;43.67;;;26.63;;
64950;SDS011;51482;47.014;7.652;2023-03-04T00:03:36;44.97;;;31.37;;
64950;SDS011;51482;47.014;7.652;2023-03-04T00:06:02;44.90;;;26.53;;
64950;SDS011;51482;47.014;7.652;2023-03-04T00:08:29;41.90;;;26.70;;
64950;SDS011;51482;47.014;7.652;2023-03-04T00:10:54;43.97;;;24.33;;
64950;SDS011;51482;47.014;7.652;2023-03-04T00:13:20;41.40;;;26.80;;
64950;SDS011;51482;47.014;7.652;2023-03-04T00:15:46;47.67;;;32.40;;
64950;SDS011;51482;47.014;7.652;2023-03-04T00:18:12;42.00;;;25.23;;
64950;SDS011;51482;47.014;7.652;2023-03-04T00:20:38;42.43;;;30.20;;
64950;SDS011;51482;47.014;7.652;2023-03-04T00:23:03;41.20;;;26.47;;
64950;SDS011;51482;47.014;7.652;2023-03-04T00:25:29;46.10;;;26.60;;
64950;SDS011;51482;47.014;7.652;2023-03-04T00:27:55;44.17;;;25.03;;
64950;SDS011;51482;47.014;7.652;2023-03-04T00:30:22;44.37;;;25.63;;
64950;SDS011;51482;47.014;7.652;2023-03-04T00:32:48;48.23;;;31.97;;
64950;SDS011;51482;47.014;7.652;2023-03-04T00:35:14;48.80;;;25.77;;
64950;SDS011;51482;47.014;7.652;2023-03-04T00:37:40;44.90;;;32.13;;
64950;SDS011;51482;47.014;7.652;2023-03-04T00:40:06;44.53;;;24.60;;
64950;SDS011;51482;47.014;7.652;2023-03-04T00:42:32;43.67;;;25.30;;
64950;SDS011;51482;47.014;7.652;2023-03-04T00:44:58;43.60;;;25.00;;
64950;SDS011;51482;47.014;7.652;2023-03-04T00:47:23;42.70;;;23.33;;
64950;SDS011;51482;47.014;7.652;2023-03-04T00:49:49;45.27;;;29.33;;
64950;SDS011;51482;47.014;7.652;2023-03-04T00:52:14;43.33;;;26.97;;
64950;SDS011;51482;47.014;7.652;2023-03-04T00:54:40;47.63;;;30.70;;
64950;SDS011;51482;47.014;7.652;2023-03-04T00:57:06;42.47;;;25.17;;
64950;SDS011;51482;47.014;7.652;2023-03-04T00:59:31;40.57;;;25.40;;
64950;SDS011;51482;47.014;7.652;2023-03-04T01:01:57;42.40;;;24.53;;
64950;SDS011;51482;47.014;7.652;2023-03-04T01:04:22;48.43;;;26.53;;
64950;SDS011;51482;47.014;7.652;2023-03-04T01:06:48;49.67;;;33.33;;
64950;SDS011;51482;47.014;7.652;2023-03-04T01:09:13;45.17;;;27.40;;
64950;SDS011;51482;47.014;7.652;2023-03-04T01:11:39;48.37;;;32.27;;
64950;SDS011;51482;47.014;7.652;2023-03-04T01:14:05;48.43;;;27.00;;
64950;SDS011;51482;47.014;7.652;2023-03-04T01:16:30;47.70;;;28.27;;
64950;SDS011;51482;47.014;7.652;2023-03-04T01:18:56;48.23;;;28.60;;
64950;SDS011;51482;47.014;7.652;2023-03-04T01:21:21;53.10;;;30.10;;
64950;SDS011;51482;47.014;7.652;2023-03-04T01:23:47;52.23;;;35.63;;
64950;SDS011;51482;47.014;7.652;2023-03-04T01:26:13;58.77;;;31.77;;
64950;SDS011;51482;47.014;7.652;2023-03-04T01:28:38;63.67;;;39.60;;
64950;SDS011;51482;47.014;7.652;2023-03-04T01:31:04;72.37;;;36.87;;
64950;SDS011;51482;47.014;7.652;2023-03-04T01:33:30;71.40;;;38.97;;
64950;SDS011;51482;47.014;7.652;2023-03-04T01:35:56;69.53;;;37.50;;
64950;SDS011;51482;47.014;7.652;2023-03-04T01:38:22;59.50;;;31.97;;
64950;SDS011;51482;47.014;7.652;2023-03-04T01:40:48;61.67;;;36.80;;
64950;SDS011;51482;47.014;7.652;2023-03-04T01:43:15;46.90;;;28.37;;
64950;SDS011;51482;47.014;7.652;2023-03-04T01:45:47;55.17;;;33.40;;
64950;SDS011;51482;47.014;7.652;2023-03-04T01:48:13;47.20;;;27.23;;
64950;SDS011;51482;47.014;7.652;2023-03-04T01:50:42;46.27;;;33.07;;
64950;SDS011;51482;47.014;7.652;2023-03-04T01:53:09;45.13;;;26.03;;
64950;SDS011;51482;47.014;7.652;2023-03-04T01:55:41;46.00;;;31.73;;
64950;SDS011;51482;47.014;7.652;2023-03-04T01:58:09;45.43;;;26.67;;
64950;SDS011;51482;47.014;7.652;2023-03-04T02:00:36;44.73;;;27.77;;
64950;SDS011;51482;47.014;7.652;2023-03-04T02:03:04;44.97;;;27.53;;
64950;SDS011;51482;47.014;7.652;2023-03-04T02:05:36;44.57;;;27.23;;
64950;SDS011;51482;47.014;7.652;2023-03-04T02:08:04;47.80;;;27.13;;
64950;SDS011;51482;47.014;7.652;2023-03-04T02:10:31;44.40;;;27.20;;
64950;SDS011;51482;47.014;7.652;2023-03-04T02:12:57;42.90;;;25.00;;
64950;SDS011;51482;47.014;7.652;2023-03-04T02:15:24;41.43;;;25.50;;
64950;SDS011;51482;47.014;7.652;2023-03-04T02:17:50;47.47;;;30.20;;
64950;SDS011;51482;47.014;7.652;2023-03-04T02:20:29;43.03;;;24.70;;
64950;SDS011;51482;47.014;7.652;2023-03-04T02:23:14;44.00;;;26.00;;
64950;SDS011;51482;47.014;7.652;2023-03-04T02:25:44;47.17;;;31.57;;
64950;SDS011;51482;47.014;7.652;2023-03-04T02:28:14;45.03;;;24.33;;
64950;SDS011;51482;47.014;7.652;2023-03-04T02:30:40;42.47;;;30.40;;
64950;SDS011;51482;47.014;7.652;2023-03-04T02:33:09;43.77;;;25.77;;
64950;SDS011;51482;47.014;7.652;2023-03-04T02:35:40;47.97;;;32.17;;
64950;SDS011;51482;47.014;7.652;2023-03-04T02:38:06;42.17;;;25.30;;
64950;SDS011;51482;47.014;7.652;2023-03-04T02:40:32;45.17;;;28.30;;
64950;SDS011;51482;47.014;7.652;2023-03-04T02:42:59;39.13;;;25.13;;
64950;SDS011;51482;47.014;7.652;2023-03-04T02:45:39;44.30;;;25.57;;
64950;SDS011;51482;47.014;7.652;2023-03-04T02:48:10;43.67;;;26.70;;
64950;SDS011;51482;47.014;7.652;2023-03-04T02:50:38;44.90;;;29.40;;
64950;SDS011;51482;47.014;7.652;2023-03-04T02:53:08;43.60;;;25.83;;
64950;SDS011;51482;47.014;7.652;2023-03-04T02:55:33;44.63;;;27.30;;
64950;SDS011;51482;47.014;7.652;2023-03-04T02:57:59;46.23;;;27.13;;
64950;SDS011;51482;47.014;7.652;2023-03-04T03:00:25;48.27;;;27.40;;
64950;SDS011;51482;47.014;7.652;2023-03-04T03:02:51;51.20;;;31.70;;
64950;SDS011;51482;47.014;7.652;2023-03-04T03:05:17;50.10;;;29.03;;
64950;SDS011;51482;47.014;7.652;2023-03-04T03:07:43;52.87;;;35.33;;
64950;SDS011;51482;47.014;7.652;2023-03-04T03:10:09;46.07;;;26.73;;
64950;SDS011;51482;47.014;7.652;2023-03-04T03:12:35;50.03;;;31.00;;
64950;SDS011;51482;47.014;7.652;2023-03-04T03:15:00;52.13;;;30.07;;
64950;SDS011;51482;47.014;7.652;2023-03-04T03:17:26;51.87;;;27.33;;
64950;SDS011;51482;47.014;7.652;2023-03-04T03:19:51;52.13;;;31.13;;
64950;SDS011;51482;47.014;7.652;2023-03-04T03:22:17;48.73;;;28.03;;
64950;SDS011;51482;47.014;7.652;2023-03-04T03:24:42;53.10;;;33.93;;
64950;SDS011;51482;47.014;7.652;2023-03-04T03:27:08;46.13;;;28.50;;
64950;SDS011;51482;47.014;7.652;2023-03-04T03:29:34;53.43;;;30.27;;
64950;SDS011;51482;47.014;7.652;2023-03-04T03:31:59;48.27;;;26.83;;
64950;SDS011;51482;47.014;7.652;2023-03-04T03:34:25;51.30;;;28.23;;
64950;SDS011;51482;47.014;7.652;2023-03-04T03:36:50;50.33;;;31.27;;
64950;SDS011;51482;47.014;7.652;2023-03-04T03:39:16;48.50;;;28.67;;
64950;SDS011;51482;47.014;7.652;2023-03-04T03:41:41;56.40;;;34.47;;
64950;SDS011;51482;47.014;7.652;2023-03-04T03:44:07;48.27;;;28.63;;
64950;SDS011;51482;47.014;7.652;2023-03-04T03:46:32;49.23;;;30.30;;
64950;SDS011;51482;47.014;7.652;2023-03-04T03:48:59;50.20;;;28.47;;
64950;SDS011;51482;47.014;7.652;2023-03-04T03:51:25;46.73;;;28.27;;
64950;SDS011;51482;47.014;7.652;2023-03-04T03:53:50;53.67;;;32.43;;
64950;SDS011;51482;47.014;7.652;2023-03-04T03:56:16;48.60;;;29.33;;
64950;SDS011;51482;47.014;7.652;2023-03-04T03:58:42;60.93;;;38.23;;
64950;SDS011;51482;47.014;7.652;2023-03-04T04:01:07;49.23;;;28.50;;
64950;SDS011;51482;47.014;7.652;2023-03-04T04:03:33;53.43;;;29.63;;
64950;SDS011;51482;47.014;7.652;2023-03-04T04:05:59;52.73;;;30.50;;
64950;SDS011;51482;47.014;7.652;2023-03-04T04:08:25;55.03;;;28.20;;
64950;SDS011;51482;47.014;7.652;2023-03-04T04:10:50;57.67;;;34.60;;
64950;SDS011;51482;47.014;7.652;2023-03-04T04:13:16;49.97;;;29.60;;
64950;SDS011;51482;47.014;7.652;2023-03-04T04:15:41;49.87;;;32.70;;
64950;SDS011;51482;47.014;7.652;2023-03-04T04:18:07;44.77;;;27.27;;
64950;SDS011;51482;47.014;7.652;2023-03-04T04:20:33;43.37;;;25.63;;
64950;SDS011;51482;47.014;7.652;2023-03-04T04:22:59;46.23;;;25.87;;
64950;SDS011;51482;47.014;7.652;2023-03-04T04:25:25;42.37;;;24.23;;
64950;SDS011;51482;47.014;7.652;2023-03-04T04:27:51;45.80;;;31.23;;
64950;SDS011;51482;47.014;7.652;2023-03-04T04:30:16;42.30;;;26.57;;
64950;SDS011;51482;47.014;7.652;2023-03-04T04:32:42;44.37;;;32.37;;
64950;SDS011;51482;47.014;7.652;2023-03-04T04:35:08;44.00;;;25.93;;
64950;SDS011;51482;47.014;7.652;2023-03-04T04:37:33;45.60;;;27.10;;
64950;SDS011;51482;47.014;7.652;2023-03-04T04:39:59;49.23;;;26.77;;
64950;SDS011;51482;47.014;7.652;2023-03-04T04:42:24;46.00;;;26.67;;
64950;SDS011;51482;47.014;7.652;2023-03-04T04:44:50;52.20;;;33.43;;
64950;SDS011;51482;47.014;7.652;2023-03-04T04:47:16;55.43;;;29.97;;
64950;SDS011;51482;47.014;7.652;2023-03-04T04:49:42;58.70;;;38.90;;
64950;SDS011;51482;47.014;7.652;2023-03-04T04:52:08;60.37;;;32.23;;
64950;SDS011;51482;47.014;7.652;2023-03-04T04:54:33;55.40;;;33.20;;
64950;SDS011;51482;47.014;7.652;2023-03-04T04:56:59;59.60;;;33.17;;
64950;SDS011;51482;47.014;7.652;2023-03-04T04:59:24;49.73;;;29.47;;
64950;SDS011;51482;47.014;7.652;2023-03-04T05:01:50;51.23;;;33.70;;
64950;SDS011;51482;47.014;7.652;2023-03-04T05:04:15;49.07;;;28.43;;
64950;SDS011;51482;47.014;7.652;2023-03-04T05:06:41;48.90;;;33.13;;
64950;SDS011;51482;47.014;7.652;2023-03-04T05:09:06;47.83;;;27.43;;
64950;SDS011;51482;47.014;7.652;2023-03-04T05:11:32;47.73;;;28.63;;
64950;SDS011;51482;47.014;7.652;2023-03-04T05:13:58;50.80;;;30.07;;
64950;SDS011;51482;47.014;7.652;2023-03-04T05:16:23;52.93;;;31.13;;
64950;SDS011;51482;47.014;7.652;2023-03-04T05:18:49;59.87;;;36.90;;
64950;SDS011;51482;47.014;7.652;2023-03-04T05:21:14;51.87;;;29.97;;
64950;SDS011;51482;47.014;7.652;2023-03-04T05:23:41;53.13;;;35.13;;
64950;SDS011;51482;47.014;7.652;2023-03-04T05:26:07;51.90;;;30.70;;
64950;SDS011;51482;47.014;7.652;2023-03-04T05:28:35;53.53;;;31.40;;
64950;SDS011;51482;47.014;7.652;2023-03-04T05:31:01;54.13;;;29.57;;
64950;SDS011;51482;47.014;7.652;2023-03-04T05:33:26;46.90;;;28.10;;
64950;SDS011;51482;47.014;7.652;2023-03-04T05:35:52;53.30;;;30.00;;
64950;SDS011;51482;47.014;7.652;2023-03-04T05:38:19;44.43;;;26.07;;
64950;SDS011;51482;47.014;7.652;2023-03-04T05:40:45;49.70;;;31.93;;
64950;SDS011;51482;47.014;7.652;2023-03-04T05:43:11;40.23;;;24.63;;
64950;SDS011;51482;47.014;7.652;2023-03-04T05:45:37;44.37;;;31.03;;
64950;SDS011;51482;47.014;7.652;2023-03-04T05:48:04;41.63;;;25.57;;
64950;SDS011;51482;47.014;7.652;2023-03-04T05:50:31;41.87;;;25.13;;
64950;SDS011;51482;47.014;7.652;2023-03-04T05:52:57;42.30;;;25.00;;
64950;SDS011;51482;47.014;7.652;2023-03-04T05:55:23;46.97;;;25.10;;
64950;SDS011;51482;47.014;7.652;2023-03-04T05:57:49;50.03;;;31.77;;
64950;SDS011;51482;47.014;7.652;2023-03-04T06:00:15;42.03;;;24.20;;
64950;SDS011;51482;47.014;7.652;2023-03-04T06:02:41;46.50;;;32.13;;
64950;SDS011;51482;47.014;7.652;2023-03-04T06:05:08;46.17;;;24.10;;
64950;SDS011;51482;47.014;7.652;2023-03-04T06:07:34;45.80;;;30.60;;
64950;SDS011;51482;47.014;7.652;2023-03-04T06:10:00;40.63;;;24.57;;
64950;SDS011;51482;47.014;7.652;2023-03-04T06:12:26;42.37;;;25.20;;
64950;SDS011;51482;47.014;7.652;2023-03-04T06:14:52;45.63;;;29.83;;
64950;SDS011;51482;47.014;7.652;2023-03-04T06:17:19;42.77;;;26.37;;
64950;SDS011;51482;47.014;7.652;2023-03-04T06:19:44;43.90;;;29.93;;
64950;SDS011;51482;47.014;7.652;2023-03-04T06:22:10;42.17;;;24.13;;
64950;SDS011;51482;47.014;7.652;2023-03-04T06:24:36;45.83;;;26.57;;
64950;SDS011;51482;47.014;7.652;2023-03-04T06:27:02;42.10;;;26.07;;
64950;SDS011;51482;47.014;7.652;2023-03-04T06:29:27;45.20;;;25.17;;
64950;SDS011;51482;47.014;7.652;2023-03-04T06:31:53;42.33;;;26.47;;
64950;SDS011;51482;47.014;7.652;2023-03-04T06:34:18;39.73;;;24.57;;
64950;SDS011;51482;47.014;7.652;2023-03-04T06:36:44;45.80;;;32.30;;
64950;SDS011;51482;47.014;7.652;2023-03-04T06:39:10;46.40;;;25.47;;
64950;SDS011;51482;47.014;7.652;2023-03-04T06:41:36;46.37;;;29.47;;
64950;SDS011;51482;47.014;7.652;2023-03-04T06:44:02;40.97;;;25.37;;
64950;SDS011;51482;47.014;7.652;2023-03-04T06:46:27;44.03;;;26.77;;
64950;SDS011;51482;47.014;7.652;2023-03-04T06:48:53;43.77;;;27.60;;
64950;SDS011;51482;47.014;7.652;2023-03-04T06:51:19;42.13;;;23.80;;
64950;SDS011;51482;47.014;7.652;2023-03-04T06:53:44;44.23;;;32.10;;
64950;SDS011;51482;47.014;7.652;2023-03-04T06:56:11;47.97;;;27.27;;
64950;SDS011;51482;47.014;7.652;2023-03-04T06:58:39;52.37;;;32.97;;
64950;SDS011;51482;47.014;7.652;2023-03-04T07:03:38;49.77;;;32.40;;
64950;SDS011;51482;47.014;7.652;2023-03-04T07:06:03;47.20;;;26.97;;
64950;SDS011;51482;47.014;7.652;2023-03-04T07:08:29;45.17;;;25.77;;
64950;SDS011;51482;47.014;7.652;2023-03-04T07:10:55;46.73;;;26.87;;
64950;SDS011;51482;47.014;7.652;2023-03-04T07:13:20;47.33;;;26.20;;
64950;SDS011;51482;47.014;7.652;2023-03-04T07:15:46;48.37;;;30.67;;
64950;SDS011;51482;47.014;7.652;2023-03-04T07:18:11;44.37;;;25.30;;
64950;SDS011;51482;47.014;7.652;2023-03-04T07:20:37;46.03;;;29.70;;
64950;SDS011;51482;47.014;7.652;2023-03-04T07:23:02;44.10;;;24.63;;
64950;SDS011;51482;47.014;7.652;2023-03-04T07:25:28;45.30;;;26.83;;
64950;SDS011;51482;47.014;7.652;2023-03-04T07:27:53;48.17;;;29.37;;
64950;SDS011;51482;47.014;7.652;2023-03-04T07:30:19;41.20;;;25.20;;
64950;SDS011;51482;47.014;7.652;2023-03-04T07:32:44;45.63;;;31.57;;
64950;SDS011;51482;47.014;7.652;2023-03-04T07:35:10;42.93;;;25.10;;
64950;SDS011;51482;47.014;7.652;2023-03-04T07:37:36;41.87;;;28.07;;
64950;SDS011;51482;47.014;7.652;2023-03-04T07:40:01;44.90;;;26.67;;
64950;SDS011;51482;47.014;7.652;2023-03-04T07:42:27;43.40;;;25.87;;
64950;SDS011;51482;47.014;7.652;2023-03-04T07:44:53;43.63;;;26.60;;
64950;SDS011;51482;47.014;7.652;2023-03-04T07:47:19;81.57;;;45.93;;
64950;SDS011;51482;47.014;7.652;2023-03-04T07:49:45;48.00;;;33.03;;
64950;SDS011;51482;47.014;7.652;2023-03-04T07:52:10;45.63;;;26.43;;
64950;SDS011;51482;47.014;7.652;2023-03-04T07:54:38;44.73;;;30.77;;
64950;SDS011;51482;47.014;7.652;2023-03-04T07:57:03;45.07;;;26.63;;
64950;SDS011;51482;47.014;7.652;2023-03-04T07:59:29;43.50;;;27.03;;
64950;SDS011;51482;47.014;7.652;2023-03-04T08:01:55;44.40;;;26.07;;
64950;SDS011;51482;47.014;7.652;2023-03-04T08:04:20;47.03;;;28.33;;
64950;SDS011;51482;47.014;7.652;2023-03-04T08:06:46;45.57;;;32.03;;
64950;SDS011;51482;47.014;7.652;2023-03-04T08:09:12;45.90;;;27.80;;
64950;SDS011;51482;47.014;7.652;2023-03-04T08:11:38;55.27;;;33.20;;
64950;SDS011;51482;47.014;7.652;2023-03-04T08:14:04;46.47;;;27.23;;
64950;SDS011;51482;47.014;7.652;2023-03-04T08:16:30;50.00;;;30.07;;
64950;SDS011;51482;47.014;7.652;2023-03-04T08:18:57;57.23;;;33.80;;
64950;SDS011;51482;47.014;7.652;2023-03-04T08:21:25;66.00;;;36.60;;
64950;SDS011;51482;47.014;7.652;2023-03-04T08:23:51;65.00;;;39.77;;
64950;SDS011;51482;47.014;7.652;2023-03-04T08:26:19;64.47;;;36.60;;
64950;SDS011;51482;47.014;7.652;2023-03-04T08:28:45;58.20;;;38.13;;
64950;SDS011;51482;47.014;7.652;2023-03-04T08:31:11;47.20;;;29.40;;
64950;SDS011;51482;47.014;7.652;2023-03-04T08:33:38;52.67;;;33.07;;
64950;SDS011;51482;47.014;7.652;2023-03-04T08:36:03;49.80;;;29.30;;
64950;SDS011;51482;47.014;7.652;2023-03-04T08:38:29;55.00;;;30.70;;
64950;SDS011;51482;47.014;7.652;2023-03-04T08:40:56;49.67;;;30.33;;
64950;SDS011;51482;47.014;7.652;2023-03-04T08:43:21;55.00;;;31.33;;
64950;SDS011;51482;47.014;7.652;2023-03-04T08:45:49;62.67;;;37.80;;
64950;SDS011;51482;47.014;7.652;2023-03-04T08:48:15;57.97;;;33.37;;
64950;SDS011;51482;47.014;7.652;2023-03-04T08:50:42;54.27;;;37.53;;
64950;SDS011;51482;47.014;7.652;2023-03-04T08:53:09;55.07;;;32.07;;
64950;SDS011;51482;47.014;7.652;2023-03-04T08:55:36;58.50;;;34.83;;
64950;SDS011;51482;47.014;7.652;2023-03-04T08:58:05;55.77;;;30.93;;
64950;SDS011;51482;47.014;7.652;2023-03-04T09:00:32;50.43;;;31.57;;
64950;SDS011;51482;47.014;7.652;2023-03-04T09:02:58;56.87;;;33.60;;
64950;SDS011;51482;47.014;7.652;2023-03-04T09:05:24;54.17;;;32.67;;
64950;SDS011;51482;47.014;7.652;2023-03-04T09:07:49;57.30;;;36.67;;
64950;SDS011;51482;47.014;7.652;2023-03-04T09:10:15;52.93;;;29.77;;
64950;SDS011;51482;47.014;7.652;2023-03-04T09:12:41;53.20;;;35.83;;
64950;SDS011;51482;47.014;7.652;2023-03-04T09:15:06;52.00;;;30.83;;
64950;SDS011;51482;47.014;7.652;2023-03-04T09:17:32;50.10;;;29.23;;
64950;SDS011;51482;47.014;7.652;2023-03-04T09:19:58;47.87;;;28.33;;
64950;SDS011;51482;47.014;7.652;2023-03-04T09:22:24;48.67;;;28.17;;
64950;SDS011;51482;47.014;7.652;2023-03-04T09:24:50;47.83;;;31.37;;
64950;SDS011;51482;47.014;7.652;2023-03-04T09:27:15;46.90;;;27.93;;
64950;SDS011;51482;47.014;7.652;2023-03-04T09:29:41;47.07;;;31.47;;
64950;SDS011;51482;47.014;7.652;2023-03-04T09:32:08;46.97;;;27.57;;
64950;SDS011;51482;47.014;7.652;2023-03-04T09:34:34;44.00;;;29.10;;
64950;SDS011;51482;47.014;7.652;2023-03-04T09:36:59;44.40;;;26.00;;
64950;SDS011;51482;47.014;7.652;2023-03-04T09:39:25;44.90;;;27.43;;
64950;SDS011;51482;47.014;7.652;2023-03-04T09:41:52;47.03;;;30.70;;
64950;SDS011;51482;47.014;7.652;2023-03-04T09:46:57;42.37;;;25.47;;
64950;SDS011;51482;47.014;7.652;2023-03-04T09:49:25;40.97;;;24.57;;
64950;SDS011;51482;47.014;7.652;2023-03-04T09:52:04;40.47;;;29.47;;
64950;SDS011;51482;47.014;7.652;2023-03-04T09:57:28;44.17;;;24.83;;
64950;SDS011;51482;47.014;7.652;2023-03-04T10:08:23;40.83;;;24.77;;
64950;SDS011;51482;47.014;7.652;2023-03-04T10:11:05;40.53;;;24.60;;
64950;SDS011;51482;47.014;7.652;2023-03-04T10:13:49;43.93;;;30.93;;
64950;SDS011;51482;47.014;7.652;2023-03-04T10:17:11;41.13;;;28.07;;
64950;SDS011;51482;47.014;7.652;2023-03-04T10:22:22;37.33;;;23.17;;
64950;SDS011;51482;47.014;7.652;2023-03-04T10:25:00;27.67;;;18.97;;
64950;SDS011;51482;47.014;7.652;2023-03-04T10:27:51;34.63;;;25.30;;
64950;SDS011;51482;47.014;7.652;2023-03-04T10:30:30;30.27;;;20.40;;
64950;SDS011;51482;47.014;7.652;2023-03-04T10:33:19;32.63;;;21.00;;
64950;SDS011;51482;47.014;7.652;2023-03-04T10:35:47;40.97;;;30.00;;
64950;SDS011;51482;47.014;7.652;2023-03-04T10:38:27;37.33;;;24.50;;
64950;SDS011;51482;47.014;7.652;2023-03-04T10:41:09;37.67;;;24.43;;
64950;SDS011;51482;47.014;7.652;2023-03-04T10:43:40;37.37;;;29.90;;
64950;SDS011;51482;47.014;7.652;2023-03-04T10:46:09;37.27;;;24.33;;
64950;SDS011;51482;47.014;7.652;2023-03-04T10:48:36;36.17;;;27.83;;
64950;SDS011;51482;47.014;7.652;2023-03-04T10:51:18;38.00;;;26.23;;
64950;SDS011;51482;47.014;7.652;2023-03-04T10:53:46;38.53;;;29.50;;
64950;SDS011;51482;47.014;7.652;2023-03-04T11:01:56;38.33;;;24.17;;
64950;SDS011;51482;47.014;7.652;2023-03-04T11:04:26;37.27;;;24.00;;
64950;SDS011;51482;47.014;7.652;2023-03-04T11:06:58;32.90;;;22.73;;
64950;SDS011;51482;47.014;7.652;2023-03-04T11:09:24;34.17;;;23.88;;
64950;SDS011;51482;47.014;7.652;2023-03-04T11:11:54;35.58;;;24.90;;
64950;SDS011;51482;47.014;7.652;2023-03-04T11:14:24;36.28;;;24.83;;
64950;SDS011;51482;47.014;7.652;2023-03-04T11:17:02;32.13;;;22.45;;
64950;SDS011;51482;47.014;7.652;2023-03-04T11:19:41;32.30;;;28.05;;
64950;SDS011;51482;47.014;7.652;2023-03-04T11:22:15;33.20;;;21.85;;
64950;SDS011;51482;47.014;7.652;2023-03-04T11:24:42;38.13;;;28.05;;
64950;SDS011;51482;47.014;7.652;2023-03-04T11:27:13;32.03;;;22.90;;
64950;SDS011;51482;47.014;7.652;2023-03-04T11:29:44;30.42;;;26.55;;
64950;SDS011;51482;47.014;7.652;2023-03-04T11:32:23;27.73;;;20.67;;
64950;SDS011;51482;47.014;7.652;2023-03-04T11:34:58;32.22;;;23.00;;
64950;SDS011;51482;47.014;7.652;2023-03-04T11:37:36;30.23;;;19.63;;
64950;SDS011;51482;47.014;7.652;2023-03-04T11:40:27;29.65;;;20.38;;
64950;SDS011;51482;47.014;7.652;2023-03-04T11:42:59;25.45;;;19.23;;
64950;SDS011;51482;47.014;7.652;2023-03-04T11:48:32;27.98;;;19.40;;
64950;SDS011;51482;47.014;7.652;2023-03-04T11:59:04;23.88;;;17.60;;
64950;SDS011;51482;47.014;7.652;2023-03-04T12:05:05;21.65;;;15.07;;
64950;SDS011;51482;47.014;7.652;2023-03-04T12:10:17;20.77;;;14.50;;
64950;SDS011;51482;47.014;7.652;2023-03-04T12:18:50;20.65;;;18.50;;
64950;SDS011;51482;47.014;7.652;2023-03-04T12:27:23;16.23;;;13.45;;
64950;SDS011;51482;47.014;7.652;2023-03-04T12:33:11;17.30;;;12.02;;
64950;SDS011;51482;47.014;7.652;2023-03-04T12:42:17;16.95;;;12.73;;
64950;SDS011;51482;47.014;7.652;2023-03-04T12:48:05;19.58;;;16.67;;
64950;SDS011;51482;47.014;7.652;2023-03-04T12:50:58;19.73;;;16.38;;
64950;SDS011;51482;47.014;7.652;2023-03-04T12:56:02;17.63;;;13.60;;
64950;SDS011;51482;47.014;7.652;2023-03-04T12:58:30;21.45;;;14.90;;
64950;SDS011;51482;47.014;7.652;2023-03-04T13:03:39;21.45;;;14.93;;
64950;SDS011;51482;47.014;7.652;2023-03-04T13:06:11;20.23;;;15.57;;
64950;SDS011;51482;47.014;7.652;2023-03-04T13:14:00;22.27;;;19.90;;
64950;SDS011;51482;47.014;7.652;2023-03-04T13:16:37;27.13;;;19.77;;
64950;SDS011;51482;47.014;7.652;2023-03-04T13:22:29;20.88;;;15.40;;
64950;SDS011;51482;47.014;7.652;2023-03-04T13:35:47;17.65;;;14.73;;
64950;SDS011;51482;47.014;7.652;2023-03-04T13:44:01;21.00;;;18.73;;
64950;SDS011;51482;47.014;7.652;2023-03-04T13:51:22;19.55;;;13.57;;
64950;SDS011;51482;47.014;7.652;2023-03-04T13:53:52;20.70;;;18.58;;
64950;SDS011;51482;47.014;7.652;2023-03-04T13:56:39;20.63;;;14.95;;
64950;SDS011;51482;47.014;7.652;2023-03-04T13:59:20;20.58;;;15.32;;
64950;SDS011;51482;47.014;7.652;2023-03-04T14:01:50;24.13;;;21.23;;
64950;SDS011;51482;47.014;7.652;2023-03-04T14:04:28;17.42;;;13.23;;
64950;SDS011;51482;47.014;7.652;2023-03-04T14:07:00;23.48;;;15.30;;
64950;SDS011;51482;47.014;7.652;2023-03-04T14:09:40;22.10;;;19.77;;
64950;SDS011;51482;47.014;7.652;2023-03-04T14:12:18;21.38;;;16.45;;
64950;SDS011;51482;47.014;7.652;2023-03-04T14:14:46;23.23;;;20.77;;
64950;SDS011;51482;47.014;7.652;2023-03-04T14:17:25;23.13;;;16.08;;
64950;SDS011;51482;47.014;7.652;2023-03-04T14:19:54;24.33;;;17.67;;
64950;SDS011;51482;47.014;7.652;2023-03-04T14:22:31;23.83;;;17.35;;
64950;SDS011;51482;47.014;7.652;2023-03-04T14:27:50;25.13;;;22.63;;
64950;SDS011;51482;47.014;7.652;2023-03-04T14:30:37;21.67;;;18.55;;
64950;SDS011;51482;47.014;7.652;2023-03-04T14:33:05;22.33;;;17.00;;
64950;SDS011;51482;47.014;7.652;2023-03-04T14:35:32;22.63;;;16.48;;
64950;SDS011;51482;47.014;7.652;2023-03-04T14:38:03;21.88;;;16.13;;
64950;SDS011;51482;47.014;7.652;2023-03-04T14:40:30;22.80;;;15.55;;
64950;SDS011;51482;47.014;7.652;2023-03-04T14:43:14;20.90;;;14.93;;
64950;SDS011;51482;47.014;7.652;2023-03-04T14:45:46;26.95;;;21.55;;
64950;SDS011;51482;47.014;7.652;2023-03-04T14:48:17;27.20;;;19.67;;
64950;SDS011;51482;47.014;7.652;2023-03-04T14:50:48;24.83;;;21.40;;
64950;SDS011;51482;47.014;7.652;2023-03-04T14:53:16;26.02;;;17.70;;
64950;SDS011;51482;47.014;7.652;2023-03-04T14:58:50;23.55;;;21.05;;
64950;SDS011;51482;47.014;7.652;2023-03-04T15:01:19;24.70;;;17.80;;
64950;SDS011;51482;47.014;7.652;2023-03-04T15:06:33;20.75;;;16.42;;
64950;SDS011;51482;47.014;7.652;2023-03-04T15:09:03;23.52;;;18.05;;
64950;SDS011;51482;47.014;7.652;2023-03-04T15:11:32;28.00;;;20.40;;
64950;SDS011;51482;47.014;7.652;2023-03-04T15:17:24;22.50;;;15.88;;
64950;SDS011;51482;47.014;7.652;2023-03-04T15:22:33;29.75;;;20.67;;
64950;SDS011;51482;47.014;7.652;2023-03-04T15:25:00;26.83;;;19.20;;
64950;SDS011;51482;47.014;7.652;2023-03-04T15:27:28;27.63;;;19.90;;
64950;SDS011;51482;47.014;7.652;2023-03-04T15:29:57;24.27;;;18.45;;
64950;SDS011;51482;47.014;7.652;2023-03-04T15:32:25;28.55;;;20.20;;
64950;SDS011;51482;47.014;7.652;2023-03-04T15:34:52;24.80;;;21.40;;
64950;SDS011;51482;47.014;7.652;2023-03-04T15:37:21;22.35;;;17.33;;
64950;SDS011;51482;47.014;7.652;2023-03-04T15:39:48;28.70;;;22.63;;
64950;SDS011;51482;47.014;7.652;2023-03-04T15:42:15;26.75;;;19.42;;
64950;SDS011;51482;47.014;7.652;2023-03-04T15:44:41;33.65;;;27.92;;
64950;SDS011;51482;47.014;7.652;2023-03-04T15:47:07;24.35;;;16.52;;
64950;SDS011;51482;47.014;7.652;2023-03-04T15:49:36;31.23;;;23.88;;
64950;SDS011;51482;47.014;7.652;2023-03-04T15:52:03;29.95;;;22.23;;
64950;SDS011;51482;47.014;7.652;2023-03-04T15:54:29;30.95;;;21.90;;
64950;SDS011;51482;47.014;7.652;2023-03-04T15:56:55;31.58;;;22.60;;
64950;SDS011;51482;47.014;7.652;2023-03-04T15:59:22;26.85;;;18.25;;
64950;SDS011;51482;47.014;7.652;2023-03-04T16:01:49;33.03;;;24.85;;
64950;SDS011;51482;47.014;7.652;2023-03-04T16:04:15;34.75;;;22.40;;
64950;SDS011;51482;47.014;7.652;2023-03-04T16:06:42;29.25;;;25.88;;
64950;SDS011;51482;47.014;7.652;2023-03-04T16:09:09;31.08;;;22.25;;
64950;SDS011;51482;47.014;7.652;2023-03-04T16:11:39;35.28;;;28.67;;
64950;SDS011;51482;47.014;7.652;2023-03-04T16:14:08;37.80;;;22.15;;
64950;SDS011;51482;47.014;7.652;2023-03-04T16:16:39;30.50;;;26.52;;
64950;SDS011;51482;47.014;7.652;2023-03-04T16:19:05;30.17;;;22.10;;
64950;SDS011;51482;47.014;7.652;2023-03-04T16:21:30;34.15;;;22.60;;
64950;SDS011;51482;47.014;7.652;2023-03-04T16:23:57;31.63;;;21.45;;